Skip Navigation LinksHome page > Weather > Current weather Skip Navigation Links

Current Weather

Dallas Love Field, Dallas

For information only: do not use for flight planning or navigation.
Latest weather
Observation time Sunday, September 20, 2020 9:53 AM CDT
Local time Sunday, September 20, 2020 10:07 AM CDT
Flight conditions Visual Meteorological Conditions
Winds
Wind direction East-Northeast (60°)
Wind speed 8 mph
Visibility 10 mi.
Sky condition
Ceiling unlimited
Sky clear
Temperature 69°F
Dewpoint 56°F
Altimeter 30.18 in.Hg
Pressure change last 3 hours-0.04 in.Hg
Pressure rising more slowly
Derived measurements
Relative humidity 63%
Density altitude 1060 ft.
Sea-level pressure 30.16 in.Hg
Remarks
System requires maintenance.
Automated weather observing station with precipitation discriminator.
METAR KDAL 201453Z 06007KT 10SM CLR 21/13 A3018 RMK AO2 SLP214 T02060133 51013 $

Settings

Location code

InnerDrive.Weather 4.0.6770.0 Release CLR 4.0.30319.42000
Copyright ©2018 Inner Drive Technology. All rights reserved. Portions Copyright ©1986-2018 David Braverman.

Find weather

Site navigation


Skip Navigation Links

Place info

Page info

PayPal - The safer, easier way to pay online!

Return home.

Copyright ©2020 Inner Drive Technology. Purveyors of fine, hand-crafted computer software. Page printed 2020-09-20T15:07:25 UTC.